sensor_id;sensor_type;location;lat;lon;timestamp;P1;durP1;ratioP1;P2;durP2;ratioP2
35558;SDS011;21661;50.794;-1.066;2022-12-04T00:01:08;34.33;;;15.63;;
35558;SDS011;21661;50.794;-1.066;2022-12-04T00:03:38;33.03;;;14.88;;
35558;SDS011;21661;50.794;-1.066;2022-12-04T00:06:11;34.03;;;14.90;;
35558;SDS011;21661;50.794;-1.066;2022-12-04T00:08:38;29.95;;;14.70;;
35558;SDS011;21661;50.794;-1.066;2022-12-04T00:11:05;34.22;;;14.32;;
35558;SDS011;21661;50.794;-1.066;2022-12-04T00:13:32;33.85;;;14.48;;
35558;SDS011;21661;50.794;-1.066;2022-12-04T00:15:59;28.67;;;13.77;;
35558;SDS011;21661;50.794;-1.066;2022-12-04T00:18:25;29.65;;;13.75;;
35558;SDS011;21661;50.794;-1.066;2022-12-04T00:20:51;26.73;;;14.23;;
35558;SDS011;21661;50.794;-1.066;2022-12-04T00:23:16;31.90;;;14.77;;
35558;SDS011;21661;50.794;-1.066;2022-12-04T00:25:42;33.33;;;14.52;;
35558;SDS011;21661;50.794;-1.066;2022-12-04T00:28:12;31.38;;;13.65;;
35558;SDS011;21661;50.794;-1.066;2022-12-04T00:30:40;30.65;;;14.27;;
35558;SDS011;21661;50.794;-1.066;2022-12-04T00:33:06;27.45;;;13.90;;
35558;SDS011;21661;50.794;-1.066;2022-12-04T00:35:32;28.40;;;14.63;;
35558;SDS011;21661;50.794;-1.066;2022-12-04T00:37:57;29.52;;;13.40;;
35558;SDS011;21661;50.794;-1.066;2022-12-04T00:40:23;27.85;;;13.82;;
35558;SDS011;21661;50.794;-1.066;2022-12-04T00:42:48;29.52;;;13.85;;
35558;SDS011;21661;50.794;-1.066;2022-12-04T00:45:14;29.20;;;14.10;;
35558;SDS011;21661;50.794;-1.066;2022-12-04T00:47:39;33.78;;;14.05;;
35558;SDS011;21661;50.794;-1.066;2022-12-04T00:50:05;28.60;;;13.05;;
35558;SDS011;21661;50.794;-1.066;2022-12-04T00:52:31;30.98;;;14.27;;
35558;SDS011;21661;50.794;-1.066;2022-12-04T00:54:57;30.85;;;13.65;;
35558;SDS011;21661;50.794;-1.066;2022-12-04T00:57:23;30.73;;;14.00;;
35558;SDS011;21661;50.794;-1.066;2022-12-04T00:59:48;32.47;;;15.00;;
35558;SDS011;21661;50.794;-1.066;2022-12-04T01:02:14;30.48;;;14.40;;
35558;SDS011;21661;50.794;-1.066;2022-12-04T01:04:39;32.45;;;14.38;;
35558;SDS011;21661;50.794;-1.066;2022-12-04T01:07:05;33.15;;;14.88;;
35558;SDS011;21661;50.794;-1.066;2022-12-04T01:09:31;33.22;;;13.90;;
35558;SDS011;21661;50.794;-1.066;2022-12-04T01:11:57;34.25;;;14.07;;
35558;SDS011;21661;50.794;-1.066;2022-12-04T01:14:22;31.95;;;13.43;;
35558;SDS011;21661;50.794;-1.066;2022-12-04T01:16:48;35.60;;;13.95;;
35558;SDS011;21661;50.794;-1.066;2022-12-04T01:19:13;36.22;;;15.65;;
35558;SDS011;21661;50.794;-1.066;2022-12-04T01:21:39;33.55;;;14.48;;
35558;SDS011;21661;50.794;-1.066;2022-12-04T01:24:05;31.90;;;14.10;;
35558;SDS011;21661;50.794;-1.066;2022-12-04T01:26:31;32.20;;;13.57;;
35558;SDS011;21661;50.794;-1.066;2022-12-04T01:28:57;29.77;;;13.13;;
35558;SDS011;21661;50.794;-1.066;2022-12-04T01:31:23;37.35;;;14.25;;
35558;SDS011;21661;50.794;-1.066;2022-12-04T01:33:49;33.50;;;14.25;;
35558;SDS011;21661;50.794;-1.066;2022-12-04T01:36:16;37.17;;;15.15;;
35558;SDS011;21661;50.794;-1.066;2022-12-04T01:38:44;34.40;;;13.70;;
35558;SDS011;21661;50.794;-1.066;2022-12-04T01:41:10;32.35;;;14.43;;
35558;SDS011;21661;50.794;-1.066;2022-12-04T01:43:38;32.40;;;13.60;;
35558;SDS011;21661;50.794;-1.066;2022-12-04T01:46:05;29.55;;;13.80;;
35558;SDS011;21661;50.794;-1.066;2022-12-04T01:51:14;29.52;;;13.30;;
35558;SDS011;21661;50.794;-1.066;2022-12-04T01:53:41;31.30;;;14.00;;
35558;SDS011;21661;50.794;-1.066;2022-12-04T01:56:10;29.60;;;13.63;;
35558;SDS011;21661;50.794;-1.066;2022-12-04T01:58:40;34.40;;;13.70;;
35558;SDS011;21661;50.794;-1.066;2022-12-04T02:01:10;31.35;;;13.45;;
35558;SDS011;21661;50.794;-1.066;2022-12-04T02:03:36;35.28;;;14.27;;
35558;SDS011;21661;50.794;-1.066;2022-12-04T02:06:03;32.10;;;13.73;;
35558;SDS011;21661;50.794;-1.066;2022-12-04T02:08:29;34.88;;;14.77;;
35558;SDS011;21661;50.794;-1.066;2022-12-04T02:13:25;32.88;;;13.90;;
35558;SDS011;21661;50.794;-1.066;2022-12-04T02:21:59;34.90;;;13.55;;
35558;SDS011;21661;50.794;-1.066;2022-12-04T02:30:05;31.65;;;14.27;;
35558;SDS011;21661;50.794;-1.066;2022-12-04T02:40:44;32.78;;;13.35;;
35558;SDS011;21661;50.794;-1.066;2022-12-04T02:45:49;30.75;;;13.95;;
35558;SDS011;21661;50.794;-1.066;2022-12-04T02:48:20;32.10;;;13.85;;
35558;SDS011;21661;50.794;-1.066;2022-12-04T02:50:49;33.40;;;14.30;;
35558;SDS011;21661;50.794;-1.066;2022-12-04T02:53:18;28.83;;;13.45;;
35558;SDS011;21661;50.794;-1.066;2022-12-04T02:55:53;33.28;;;12.82;;
35558;SDS011;21661;50.794;-1.066;2022-12-04T02:58:29;34.75;;;14.55;;
35558;SDS011;21661;50.794;-1.066;2022-12-04T03:00:59;27.75;;;13.07;;
35558;SDS011;21661;50.794;-1.066;2022-12-04T03:03:27;35.75;;;15.07;;
35558;SDS011;21661;50.794;-1.066;2022-12-04T03:05:57;33.47;;;12.77;;
35558;SDS011;21661;50.794;-1.066;2022-12-04T03:08:31;32.20;;;13.55;;
35558;SDS011;21661;50.794;-1.066;2022-12-04T03:11:03;30.20;;;13.98;;
35558;SDS011;21661;50.794;-1.066;2022-12-04T03:13:38;35.97;;;15.02;;
35558;SDS011;21661;50.794;-1.066;2022-12-04T03:16:12;32.88;;;14.30;;
35558;SDS011;21661;50.794;-1.066;2022-12-04T03:18:48;35.22;;;14.52;;
35558;SDS011;21661;50.794;-1.066;2022-12-04T03:21:28;34.15;;;14.18;;
35558;SDS011;21661;50.794;-1.066;2022-12-04T03:24:02;32.75;;;14.63;;
35558;SDS011;21661;50.794;-1.066;2022-12-04T03:26:32;33.97;;;13.50;;
35558;SDS011;21661;50.794;-1.066;2022-12-04T03:29:23;30.98;;;14.10;;
35558;SDS011;21661;50.794;-1.066;2022-12-04T03:32:07;33.70;;;13.30;;
35558;SDS011;21661;50.794;-1.066;2022-12-04T03:34:55;36.70;;;14.65;;
35558;SDS011;21661;50.794;-1.066;2022-12-04T03:37:40;33.92;;;14.43;;
35558;SDS011;21661;50.794;-1.066;2022-12-04T03:43:10;33.20;;;14.73;;
35558;SDS011;21661;50.794;-1.066;2022-12-04T03:45:50;32.78;;;14.05;;
35558;SDS011;21661;50.794;-1.066;2022-12-04T03:53:49;34.38;;;14.00;;
35558;SDS011;21661;50.794;-1.066;2022-12-04T03:56:22;36.78;;;14.73;;
35558;SDS011;21661;50.794;-1.066;2022-12-04T03:58:56;37.47;;;14.32;;
35558;SDS011;21661;50.794;-1.066;2022-12-04T04:01:28;37.22;;;15.80;;
35558;SDS011;21661;50.794;-1.066;2022-12-04T04:03:58;36.15;;;15.43;;
35558;SDS011;21661;50.794;-1.066;2022-12-04T04:06:30;33.70;;;14.98;;
35558;SDS011;21661;50.794;-1.066;2022-12-04T04:09:02;35.10;;;14.32;;
35558;SDS011;21661;50.794;-1.066;2022-12-04T04:11:43;36.40;;;15.23;;
35558;SDS011;21661;50.794;-1.066;2022-12-04T04:14:16;34.95;;;14.88;;
35558;SDS011;21661;50.794;-1.066;2022-12-04T04:17:05;38.83;;;15.00;;
35558;SDS011;21661;50.794;-1.066;2022-12-04T04:19:55;32.15;;;14.15;;
35558;SDS011;21661;50.794;-1.066;2022-12-04T04:22:46;36.85;;;15.75;;
35558;SDS011;21661;50.794;-1.066;2022-12-04T04:25:33;37.38;;;14.27;;
35558;SDS011;21661;50.794;-1.066;2022-12-04T04:28:02;37.97;;;14.88;;
35558;SDS011;21661;50.794;-1.066;2022-12-04T04:30:28;34.67;;;15.95;;
35558;SDS011;21661;50.794;-1.066;2022-12-04T04:35:45;37.67;;;15.90;;
35558;SDS011;21661;50.794;-1.066;2022-12-04T04:38:31;40.30;;;16.70;;
35558;SDS011;21661;50.794;-1.066;2022-12-04T04:43:36;37.25;;;14.30;;
35558;SDS011;21661;50.794;-1.066;2022-12-04T04:46:16;38.00;;;14.75;;
35558;SDS011;21661;50.794;-1.066;2022-12-04T04:48:47;41.40;;;16.13;;
35558;SDS011;21661;50.794;-1.066;2022-12-04T04:51:17;41.47;;;16.77;;
35558;SDS011;21661;50.794;-1.066;2022-12-04T04:53:45;36.17;;;15.60;;
35558;SDS011;21661;50.794;-1.066;2022-12-04T04:56:15;45.30;;;17.48;;
35558;SDS011;21661;50.794;-1.066;2022-12-04T04:58:41;44.20;;;17.80;;
35558;SDS011;21661;50.794;-1.066;2022-12-04T05:01:08;41.70;;;17.08;;
35558;SDS011;21661;50.794;-1.066;2022-12-04T05:03:39;43.83;;;18.77;;
35558;SDS011;21661;50.794;-1.066;2022-12-04T05:06:05;45.80;;;18.98;;
35558;SDS011;21661;50.794;-1.066;2022-12-04T05:08:32;42.65;;;17.85;;
35558;SDS011;21661;50.794;-1.066;2022-12-04T05:10:58;50.17;;;19.00;;
35558;SDS011;21661;50.794;-1.066;2022-12-04T05:13:24;44.67;;;18.13;;
35558;SDS011;21661;50.794;-1.066;2022-12-04T05:15:54;41.35;;;18.40;;
35558;SDS011;21661;50.794;-1.066;2022-12-04T05:18:28;46.08;;;17.67;;
35558;SDS011;21661;50.794;-1.066;2022-12-04T05:20:54;46.17;;;19.98;;
35558;SDS011;21661;50.794;-1.066;2022-12-04T05:23:20;43.45;;;18.77;;
35558;SDS011;21661;50.794;-1.066;2022-12-04T05:25:46;43.95;;;17.92;;
35558;SDS011;21661;50.794;-1.066;2022-12-04T05:28:11;47.28;;;20.10;;
35558;SDS011;21661;50.794;-1.066;2022-12-04T05:30:37;50.63;;;20.23;;
35558;SDS011;21661;50.794;-1.066;2022-12-04T05:33:03;45.00;;;19.02;;
35558;SDS011;21661;50.794;-1.066;2022-12-04T05:35:29;44.15;;;19.40;;
35558;SDS011;21661;50.794;-1.066;2022-12-04T05:37:54;46.65;;;19.23;;
35558;SDS011;21661;50.794;-1.066;2022-12-04T05:40:20;50.72;;;19.15;;
35558;SDS011;21661;50.794;-1.066;2022-12-04T05:42:45;47.30;;;18.88;;
35558;SDS011;21661;50.794;-1.066;2022-12-04T05:45:11;47.45;;;20.05;;
35558;SDS011;21661;50.794;-1.066;2022-12-04T05:47:37;49.63;;;19.13;;
35558;SDS011;21661;50.794;-1.066;2022-12-04T05:50:07;45.35;;;17.60;;
35558;SDS011;21661;50.794;-1.066;2022-12-04T05:52:34;48.30;;;20.27;;
35558;SDS011;21661;50.794;-1.066;2022-12-04T05:55:00;49.22;;;20.10;;
35558;SDS011;21661;50.794;-1.066;2022-12-04T05:57:25;46.22;;;18.92;;
35558;SDS011;21661;50.794;-1.066;2022-12-04T05:59:51;48.63;;;19.98;;
35558;SDS011;21661;50.794;-1.066;2022-12-04T06:02:17;51.63;;;20.70;;
35558;SDS011;21661;50.794;-1.066;2022-12-04T06:04:42;47.38;;;19.10;;
35558;SDS011;21661;50.794;-1.066;2022-12-04T06:07:08;48.85;;;19.30;;
35558;SDS011;21661;50.794;-1.066;2022-12-04T06:09:34;52.17;;;19.98;;
35558;SDS011;21661;50.794;-1.066;2022-12-04T06:12:00;51.65;;;21.15;;
35558;SDS011;21661;50.794;-1.066;2022-12-04T06:14:26;52.47;;;20.63;;
35558;SDS011;21661;50.794;-1.066;2022-12-04T06:16:52;54.90;;;21.52;;
35558;SDS011;21661;50.794;-1.066;2022-12-04T06:19:18;52.38;;;20.83;;
35558;SDS011;21661;50.794;-1.066;2022-12-04T06:21:46;60.28;;;22.23;;
35558;SDS011;21661;50.794;-1.066;2022-12-04T06:24:14;47.10;;;20.80;;
35558;SDS011;21661;50.794;-1.066;2022-12-04T06:26:47;50.75;;;20.88;;
35558;SDS011;21661;50.794;-1.066;2022-12-04T06:29:13;59.67;;;21.92;;
35558;SDS011;21661;50.794;-1.066;2022-12-04T06:31:40;52.53;;;21.13;;
35558;SDS011;21661;50.794;-1.066;2022-12-04T06:34:06;50.28;;;21.35;;
35558;SDS011;21661;50.794;-1.066;2022-12-04T06:36:33;49.83;;;19.58;;
35558;SDS011;21661;50.794;-1.066;2022-12-04T06:38:59;50.20;;;21.23;;
35558;SDS011;21661;50.794;-1.066;2022-12-04T06:41:26;56.63;;;22.02;;
35558;SDS011;21661;50.794;-1.066;2022-12-04T06:43:53;60.10;;;22.63;;
35558;SDS011;21661;50.794;-1.066;2022-12-04T06:46:23;54.42;;;22.80;;
35558;SDS011;21661;50.794;-1.066;2022-12-04T06:48:52;51.10;;;21.30;;
35558;SDS011;21661;50.794;-1.066;2022-12-04T06:51:23;54.55;;;21.17;;
35558;SDS011;21661;50.794;-1.066;2022-12-04T06:53:50;54.83;;;22.73;;
35558;SDS011;21661;50.794;-1.066;2022-12-04T06:56:18;61.17;;;23.30;;
35558;SDS011;21661;50.794;-1.066;2022-12-04T06:58:46;60.60;;;24.67;;
35558;SDS011;21661;50.794;-1.066;2022-12-04T07:01:15;58.10;;;23.63;;
35558;SDS011;21661;50.794;-1.066;2022-12-04T07:03:43;58.85;;;22.50;;
35558;SDS011;21661;50.794;-1.066;2022-12-04T07:06:13;61.63;;;23.45;;
35558;SDS011;21661;50.794;-1.066;2022-12-04T07:08:39;57.05;;;22.67;;
35558;SDS011;21661;50.794;-1.066;2022-12-04T07:11:05;54.38;;;22.92;;
35558;SDS011;21661;50.794;-1.066;2022-12-04T07:13:31;60.75;;;22.58;;
35558;SDS011;21661;50.794;-1.066;2022-12-04T07:15:58;57.97;;;22.85;;
35558;SDS011;21661;50.794;-1.066;2022-12-04T07:18:25;57.28;;;22.30;;
35558;SDS011;21661;50.794;-1.066;2022-12-04T07:20:51;61.25;;;23.27;;
35558;SDS011;21661;50.794;-1.066;2022-12-04T07:23:17;61.03;;;23.45;;
35558;SDS011;21661;50.794;-1.066;2022-12-04T07:25:42;57.72;;;24.00;;
35558;SDS011;21661;50.794;-1.066;2022-12-04T07:28:08;51.58;;;21.60;;
35558;SDS011;21661;50.794;-1.066;2022-12-04T07:30:35;62.90;;;24.02;;
35558;SDS011;21661;50.794;-1.066;2022-12-04T07:33:01;56.63;;;24.55;;
35558;SDS011;21661;50.794;-1.066;2022-12-04T07:35:27;58.50;;;24.15;;
35558;SDS011;21661;50.794;-1.066;2022-12-04T07:37:52;58.90;;;23.17;;
35558;SDS011;21661;50.794;-1.066;2022-12-04T07:40:18;60.60;;;24.50;;
35558;SDS011;21661;50.794;-1.066;2022-12-04T07:42:44;56.22;;;22.98;;
35558;SDS011;21661;50.794;-1.066;2022-12-04T07:45:09;61.00;;;23.23;;
35558;SDS011;21661;50.794;-1.066;2022-12-04T07:47:35;59.80;;;23.13;;
35558;SDS011;21661;50.794;-1.066;2022-12-04T07:50:01;59.35;;;24.27;;
35558;SDS011;21661;50.794;-1.066;2022-12-04T07:52:27;64.32;;;23.10;;
35558;SDS011;21661;50.794;-1.066;2022-12-04T07:54:53;64.00;;;24.63;;
35558;SDS011;21661;50.794;-1.066;2022-12-04T07:57:18;59.42;;;23.65;;
35558;SDS011;21661;50.794;-1.066;2022-12-04T07:59:44;59.42;;;24.17;;
35558;SDS011;21661;50.794;-1.066;2022-12-04T08:02:10;56.00;;;23.67;;
35558;SDS011;21661;50.794;-1.066;2022-12-04T08:04:37;59.15;;;24.92;;
35558;SDS011;21661;50.794;-1.066;2022-12-04T08:07:02;60.00;;;24.45;;
35558;SDS011;21661;50.794;-1.066;2022-12-04T08:09:28;52.25;;;24.60;;
35558;SDS011;21661;50.794;-1.066;2022-12-04T08:11:53;51.60;;;23.08;;
35558;SDS011;21661;50.794;-1.066;2022-12-04T08:14:19;55.85;;;23.55;;
35558;SDS011;21661;50.794;-1.066;2022-12-04T08:16:47;51.47;;;23.08;;
35558;SDS011;21661;50.794;-1.066;2022-12-04T08:19:13;51.08;;;22.63;;
35558;SDS011;21661;50.794;-1.066;2022-12-04T08:21:39;51.78;;;20.83;;
35558;SDS011;21661;50.794;-1.066;2022-12-04T08:24:05;47.72;;;20.35;;
35558;SDS011;21661;50.794;-1.066;2022-12-04T08:26:31;44.08;;;19.98;;
35558;SDS011;21661;50.794;-1.066;2022-12-04T08:28:58;45.20;;;20.10;;
35558;SDS011;21661;50.794;-1.066;2022-12-04T08:31:27;40.95;;;19.52;;
35558;SDS011;21661;50.794;-1.066;2022-12-04T08:33:54;39.42;;;17.58;;
35558;SDS011;21661;50.794;-1.066;2022-12-04T08:36:21;36.20;;;17.08;;
35558;SDS011;21661;50.794;-1.066;2022-12-04T08:38:46;33.13;;;15.75;;
35558;SDS011;21661;50.794;-1.066;2022-12-04T08:41:13;32.83;;;15.50;;
35558;SDS011;21661;50.794;-1.066;2022-12-04T08:43:40;28.42;;;15.02;;
35558;SDS011;21661;50.794;-1.066;2022-12-04T08:46:08;30.95;;;14.27;;
35558;SDS011;21661;50.794;-1.066;2022-12-04T08:48:36;29.10;;;14.10;;
35558;SDS011;21661;50.794;-1.066;2022-12-04T08:51:02;26.23;;;13.48;;
35558;SDS011;21661;50.794;-1.066;2022-12-04T08:53:28;27.30;;;13.18;;
35558;SDS011;21661;50.794;-1.066;2022-12-04T08:55:55;30.73;;;13.75;;
35558;SDS011;21661;50.794;-1.066;2022-12-04T08:58:21;28.33;;;13.27;;
35558;SDS011;21661;50.794;-1.066;2022-12-04T09:00:47;26.77;;;12.98;;
35558;SDS011;21661;50.794;-1.066;2022-12-04T09:03:18;25.10;;;12.68;;
35558;SDS011;21661;50.794;-1.066;2022-12-04T09:05:45;27.55;;;12.65;;
35558;SDS011;21661;50.794;-1.066;2022-12-04T09:08:11;26.23;;;13.40;;
35558;SDS011;21661;50.794;-1.066;2022-12-04T09:10:38;25.83;;;13.48;;
35558;SDS011;21661;50.794;-1.066;2022-12-04T09:13:04;27.88;;;14.32;;
35558;SDS011;21661;50.794;-1.066;2022-12-04T09:15:30;28.52;;;13.85;;
35558;SDS011;21661;50.794;-1.066;2022-12-04T09:17:56;30.20;;;14.43;;
35558;SDS011;21661;50.794;-1.066;2022-12-04T09:20:21;26.13;;;13.30;;
35558;SDS011;21661;50.794;-1.066;2022-12-04T09:22:47;29.05;;;14.75;;
35558;SDS011;21661;50.794;-1.066;2022-12-04T09:25:12;28.08;;;13.30;;
35558;SDS011;21661;50.794;-1.066;2022-12-04T09:27:38;28.25;;;13.93;;
35558;SDS011;21661;50.794;-1.066;2022-12-04T09:30:08;25.52;;;12.45;;
35558;SDS011;21661;50.794;-1.066;2022-12-04T09:32:35;25.30;;;12.98;;
35558;SDS011;21661;50.794;-1.066;2022-12-04T09:35:02;26.92;;;12.55;;
35558;SDS011;21661;50.794;-1.066;2022-12-04T09:37:28;24.92;;;13.30;;
35558;SDS011;21661;50.794;-1.066;2022-12-04T09:39:53;29.60;;;15.40;;
35558;SDS011;21661;50.794;-1.066;2022-12-04T09:44:55;32.25;;;14.05;;
35558;SDS011;21661;50.794;-1.066;2022-12-04T09:47:28;26.30;;;12.65;;
35558;SDS011;21661;50.794;-1.066;2022-12-04T09:50:02;28.80;;;13.60;;
35558;SDS011;21661;50.794;-1.066;2022-12-04T09:52:56;34.83;;;15.60;;
35558;SDS011;21661;50.794;-1.066;2022-12-04T09:55:36;30.00;;;13.77;;
35558;SDS011;21661;50.794;-1.066;2022-12-04T09:58:11;31.52;;;15.10;;
35558;SDS011;21661;50.794;-1.066;2022-12-04T10:00:41;28.77;;;15.00;;
35558;SDS011;21661;50.794;-1.066;2022-12-04T10:03:12;26.45;;;13.57;;
35558;SDS011;21661;50.794;-1.066;2022-12-04T10:08:45;26.92;;;14.38;;
35558;SDS011;21661;50.794;-1.066;2022-12-04T10:11:43;27.45;;;13.30;;
35558;SDS011;21661;50.794;-1.066;2022-12-04T10:14:19;33.33;;;15.27;;
35558;SDS011;21661;50.794;-1.066;2022-12-04T10:17:21;29.40;;;13.32;;
35558;SDS011;21661;50.794;-1.066;2022-12-04T10:19:55;28.30;;;14.40;;
35558;SDS011;21661;50.794;-1.066;2022-12-04T10:22:38;32.05;;;15.15;;
35558;SDS011;21661;50.794;-1.066;2022-12-04T10:25:20;31.15;;;14.80;;
35558;SDS011;21661;50.794;-1.066;2022-12-04T10:27:51;28.23;;;14.13;;
35558;SDS011;21661;50.794;-1.066;2022-12-04T10:30:20;30.40;;;13.82;;
35558;SDS011;21661;50.794;-1.066;2022-12-04T10:32:48;30.58;;;15.35;;
35558;SDS011;21661;50.794;-1.066;2022-12-04T10:35:22;32.65;;;15.93;;
35558;SDS011;21661;50.794;-1.066;2022-12-04T10:37:52;31.38;;;15.43;;
35558;SDS011;21661;50.794;-1.066;2022-12-04T10:43:31;35.83;;;16.42;;
35558;SDS011;21661;50.794;-1.066;2022-12-04T10:46:13;32.30;;;15.55;;
35558;SDS011;21661;50.794;-1.066;2022-12-04T10:48:46;36.83;;;17.23;;
35558;SDS011;21661;50.794;-1.066;2022-12-04T10:51:16;34.17;;;16.52;;
35558;SDS011;21661;50.794;-1.066;2022-12-04T10:53:43;35.40;;;16.38;;
35558;SDS011;21661;50.794;-1.066;2022-12-04T10:56:13;32.60;;;16.23;;
35558;SDS011;21661;50.794;-1.066;2022-12-04T10:59:00;38.00;;;18.33;;
35558;SDS011;21661;50.794;-1.066;2022-12-04T11:01:28;35.80;;;18.08;;
35558;SDS011;21661;50.794;-1.066;2022-12-04T11:03:58;36.58;;;16.70;;
35558;SDS011;21661;50.794;-1.066;2022-12-04T11:06:30;37.58;;;17.98;;
35558;SDS011;21661;50.794;-1.066;2022-12-04T11:08:56;36.38;;;16.80;;
35558;SDS011;21661;50.794;-1.066;2022-12-04T11:11:27;36.42;;;16.67;;
35558;SDS011;21661;50.794;-1.066;2022-12-04T11:14:02;40.05;;;18.75;;
35558;SDS011;21661;50.794;-1.066;2022-12-04T11:16:38;36.60;;;16.60;;
35558;SDS011;21661;50.794;-1.066;2022-12-04T11:19:22;39.60;;;18.65;;
35558;SDS011;21661;50.794;-1.066;2022-12-04T11:21:52;34.90;;;16.73;;
35558;SDS011;21661;50.794;-1.066;2022-12-04T11:27:16;40.85;;;18.75;;
35558;SDS011;21661;50.794;-1.066;2022-12-04T11:29:47;41.08;;;17.40;;
35558;SDS011;21661;50.794;-1.066;2022-12-04T11:34:54;36.28;;;17.05;;
35558;SDS011;21661;50.794;-1.066;2022-12-04T11:37:24;34.40;;;16.27;;
35558;SDS011;21661;50.794;-1.066;2022-12-04T11:39:52;35.03;;;16.70;;
35558;SDS011;21661;50.794;-1.066;2022-12-04T11:42:23;33.30;;;16.83;;
35558;SDS011;21661;50.794;-1.066;2022-12-04T11:47:51;34.38;;;16.00;;
35558;SDS011;21661;50.794;-1.066;2022-12-04T11:50:23;54.00;;;26.42;;
35558;SDS011;21661;50.794;-1.066;2022-12-04T11:53:09;44.92;;;19.45;;
35558;SDS011;21661;50.794;-1.066;2022-12-04T11:55:46;65.82;;;29.05;;
35558;SDS011;21661;50.794;-1.066;2022-12-04T12:01:25;34.50;;;16.52;;
35558;SDS011;21661;50.794;-1.066;2022-12-04T12:22:31;32.08;;;14.15;;
35558;SDS011;21661;50.794;-1.066;2022-12-04T12:25:18;31.95;;;14.95;;
35558;SDS011;21661;50.794;-1.066;2022-12-04T12:31:07;31.88;;;14.23;;
35558;SDS011;21661;50.794;-1.066;2022-12-04T12:33:38;31.08;;;13.93;;
35558;SDS011;21661;50.794;-1.066;2022-12-04T12:36:11;31.27;;;14.27;;
35558;SDS011;21661;50.794;-1.066;2022-12-04T12:38:41;28.67;;;14.00;;
35558;SDS011;21661;50.794;-1.066;2022-12-04T12:41:11;27.38;;;13.82;;
35558;SDS011;21661;50.794;-1.066;2022-12-04T12:43:45;29.50;;;13.88;;
35558;SDS011;21661;50.794;-1.066;2022-12-04T12:46:19;31.23;;;13.90;;
35558;SDS011;21661;50.794;-1.066;2022-12-04T12:57:05;29.52;;;13.70;;
35558;SDS011;21661;50.794;-1.066;2022-12-04T12:59:47;30.20;;;13.57;;
35558;SDS011;21661;50.794;-1.066;2022-12-04T13:04:47;29.42;;;14.02;;
35558;SDS011;21661;50.794;-1.066;2022-12-04T13:10:02;29.27;;;13.20;;
35558;SDS011;21661;50.794;-1.066;2022-12-04T13:13:02;30.73;;;14.77;;
35558;SDS011;21661;50.794;-1.066;2022-12-04T13:15:48;26.63;;;13.27;;
35558;SDS011;21661;50.794;-1.066;2022-12-04T13:18:27;27.40;;;13.10;;
35558;SDS011;21661;50.794;-1.066;2022-12-04T13:20:58;24.73;;;12.55;;
35558;SDS011;21661;50.794;-1.066;2022-12-04T13:26:04;26.08;;;12.88;;
35558;SDS011;21661;50.794;-1.066;2022-12-04T13:34:31;23.65;;;11.65;;
35558;SDS011;21661;50.794;-1.066;2022-12-04T13:43:09;21.23;;;10.63;;
35558;SDS011;21661;50.794;-1.066;2022-12-04T13:45:45;17.92;;;10.20;;
35558;SDS011;21661;50.794;-1.066;2022-12-04T13:48:13;20.63;;;10.80;;
35558;SDS011;21661;50.794;-1.066;2022-12-04T13:50:59;25.63;;;11.30;;
35558;SDS011;21661;50.794;-1.066;2022-12-04T13:53:30;21.17;;;11.20;;
35558;SDS011;21661;50.794;-1.066;2022-12-04T13:55:57;22.30;;;10.48;;
35558;SDS011;21661;50.794;-1.066;2022-12-04T13:58:30;20.90;;;9.95;;
35558;SDS011;21661;50.794;-1.066;2022-12-04T14:00:59;22.23;;;10.48;;
35558;SDS011;21661;50.794;-1.066;2022-12-04T14:03:35;23.48;;;10.60;;
35558;SDS011;21661;50.794;-1.066;2022-12-04T14:06:22;22.40;;;10.50;;
35558;SDS011;21661;50.794;-1.066;2022-12-04T14:09:04;23.15;;;10.70;;
35558;SDS011;21661;50.794;-1.066;2022-12-04T14:11:52;19.83;;;10.48;;
35558;SDS011;21661;50.794;-1.066;2022-12-04T14:14:28;24.02;;;11.13;;
35558;SDS011;21661;50.794;-1.066;2022-12-04T14:16:57;20.98;;;10.63;;
35558;SDS011;21661;50.794;-1.066;2022-12-04T14:19:31;20.50;;;9.90;;
35558;SDS011;21661;50.794;-1.066;2022-12-04T14:21:57;25.52;;;11.52;;
35558;SDS011;21661;50.794;-1.066;2022-12-04T14:26:54;19.70;;;10.32;;
35558;SDS011;21661;50.794;-1.066;2022-12-04T14:29:33;23.70;;;11.07;;
35558;SDS011;21661;50.794;-1.066;2022-12-04T14:32:09;27.67;;;11.57;;
35558;SDS011;21661;50.794;-1.066;2022-12-04T14:34:45;27.73;;;12.35;;
35558;SDS011;21661;50.794;-1.066;2022-12-04T14:37:34;26.20;;;13.30;;
35558;SDS011;21661;50.794;-1.066;2022-12-04T14:40:00;22.25;;;11.07;;
35558;SDS011;21661;50.794;-1.066;2022-12-04T14:42:35;31.10;;;13.03;;
35558;SDS011;21661;50.794;-1.066;2022-12-04T14:45:03;26.73;;;12.05;;
35558;SDS011;21661;50.794;-1.066;2022-12-04T14:54:50;21.63;;;11.07;;
35558;SDS011;21661;50.794;-1.066;2022-12-04T14:57:09;25.45;;;11.35;;
35558;SDS011;21661;50.794;-1.066;2022-12-04T14:59:46;26.23;;;12.07;;
35558;SDS011;21661;50.794;-1.066;2022-12-04T15:02:26;25.70;;;12.05;;
35558;SDS011;21661;50.794;-1.066;2022-12-04T15:04:58;25.17;;;11.73;;
35558;SDS011;21661;50.794;-1.066;2022-12-04T15:07:27;26.00;;;12.18;;
35558;SDS011;21661;50.794;-1.066;2022-12-04T15:09:58;29.00;;;12.88;;
35558;SDS011;21661;50.794;-1.066;2022-12-04T15:12:46;27.63;;;13.70;;
35558;SDS011;21661;50.794;-1.066;2022-12-04T15:15:15;27.70;;;13.98;;
35558;SDS011;21661;50.794;-1.066;2022-12-04T15:17:43;25.30;;;13.80;;
35558;SDS011;21661;50.794;-1.066;2022-12-04T15:20:43;27.67;;;12.95;;
35558;SDS011;21661;50.794;-1.066;2022-12-04T15:26:00;26.67;;;11.98;;
35558;SDS011;21661;50.794;-1.066;2022-12-04T15:28:42;25.25;;;12.95;;
35558;SDS011;21661;50.794;-1.066;2022-12-04T15:31:20;23.20;;;11.40;;
35558;SDS011;21661;50.794;-1.066;2022-12-04T15:34:02;26.63;;;11.93;;
35558;SDS011;21661;50.794;-1.066;2022-12-04T15:36:48;26.60;;;11.90;;
35558;SDS011;21661;50.794;-1.066;2022-12-04T15:39:25;25.75;;;12.60;;
35558;SDS011;21661;50.794;-1.066;2022-12-04T15:42:05;27.17;;;13.80;;
35558;SDS011;21661;50.794;-1.066;2022-12-04T15:45:20;27.13;;;12.20;;
35558;SDS011;21661;50.794;-1.066;2022-12-04T15:47:50;30.83;;;12.88;;
35558;SDS011;21661;50.794;-1.066;2022-12-04T15:52:51;44.10;;;18.45;;
35558;SDS011;21661;50.794;-1.066;2022-12-04T15:55:21;29.52;;;12.55;;
35558;SDS011;21661;50.794;-1.066;2022-12-04T15:57:53;25.17;;;12.32;;
35558;SDS011;21661;50.794;-1.066;2022-12-04T16:03:00;25.80;;;12.00;;
35558;SDS011;21661;50.794;-1.066;2022-12-04T16:05:32;27.05;;;12.65;;
35558;SDS011;21661;50.794;-1.066;2022-12-04T16:08:22;27.05;;;13.73;;
35558;SDS011;21661;50.794;-1.066;2022-12-04T16:11:36;29.05;;;13.18;;
35558;SDS011;21661;50.794;-1.066;2022-12-04T16:13:42;35.28;;;13.93;;
35558;SDS011;21661;50.794;-1.066;2022-12-04T16:16:11;28.65;;;13.20;;
35558;SDS011;21661;50.794;-1.066;2022-12-04T16:18:40;31.80;;;13.55;;
35558;SDS011;21661;50.794;-1.066;2022-12-04T16:21:09;32.53;;;13.25;;
35558;SDS011;21661;50.794;-1.066;2022-12-04T16:23:39;30.30;;;13.32;;
35558;SDS011;21661;50.794;-1.066;2022-12-04T16:26:08;29.80;;;14.15;;
35558;SDS011;21661;50.794;-1.066;2022-12-04T16:28:42;29.67;;;13.88;;
35558;SDS011;21661;50.794;-1.066;2022-12-04T16:31:09;30.38;;;14.18;;
35558;SDS011;21661;50.794;-1.066;2022-12-04T16:33:38;28.75;;;13.90;;
35558;SDS011;21661;50.794;-1.066;2022-12-04T16:36:04;29.48;;;14.45;;
35558;SDS011;21661;50.794;-1.066;2022-12-04T16:38:30;32.55;;;14.88;;